Time;durP1;ratioP1;P1;durP2;ratioP2;P2;SDS_P1;SDS_P2;PMS_P1;PMS_P2;Temp;Humidity;BMP_temperature;BMP_pressure;BME280_temperature;BME280_humidity;BME280_pressure;Samples;Min_cycle;Max_cycle;Signal;HPM_P1;HPM_P2
2022/09/30 00:00:26;;;;;;;3.13;2.23;;;9.80;90.40;;;;;;5070340;28;20083;-79
2022/09/30 00:02:51;;;;;;;3.60;2.78;;;9.80;90.40;;;;;;5063048;28;20114;-79
2022/09/30 00:05:17;;;;;;;5.50;3.07;;;9.80;90.50;;;;;;5052788;28;20448;-79
2022/09/30 00:07:43;;;;;;;5.13;3.17;;;9.80;90.50;;;;;;5076720;28;20119;-79
2022/09/30 00:10:08;;;;;;;5.27;3.30;;;9.70;90.50;;;;;;5068938;28;20218;-79
2022/09/30 00:12:34;;;;;;;4.47;2.83;;;9.70;90.50;;;;;;5072291;28;20114;-79
2022/09/30 00:15:00;;;;;;;5.50;3.70;;;9.60;90.50;;;;;;5056973;28;20035;-79
2022/09/30 00:17:27;;;;;;;4.10;2.80;;;9.60;90.60;;;;;;5073760;28;20021;-80
2022/09/30 00:19:52;;;;;;;4.05;2.80;;;9.60;90.60;;;;;;5052295;28;20098;-79
2022/09/30 00:22:18;;;;;;;3.70;2.50;;;9.60;90.60;;;;;;5071736;28;20311;-79
2022/09/30 00:24:45;;;;;;;5.40;2.97;;;9.50;90.70;;;;;;5053846;28;20093;-79
2022/09/30 00:27:11;;;;;;;3.78;2.60;;;9.50;90.70;;;;;;5068492;28;20726;-80
2022/09/30 00:29:36;;;;;;;3.83;2.63;;;9.40;90.70;;;;;;5056351;28;20028;-79
2022/09/30 00:32:02;;;;;;;3.93;2.70;;;9.40;90.70;;;;;;5084058;27;20015;-79
2022/09/30 00:34:28;;;;;;;3.40;2.40;;;9.40;90.70;;;;;;5038449;28;20025;-79
2022/09/30 00:36:54;;;;;;;3.07;2.27;;;9.40;90.80;;;;;;5058707;28;20062;-79
2022/09/30 00:39:26;;;;;;;4.03;2.72;;;9.40;90.80;;;;;;5069804;28;20469;-79
2022/09/30 00:41:58;;;;;;;3.00;2.10;;;9.40;90.80;;;;;;5063100;28;20652;-79
2022/09/30 00:44:49;;;;;;;3.75;2.60;;;9.30;90.80;;;;;;5062265;28;20703;-79
2022/09/30 00:47:32;;;;;;;4.10;2.53;;;9.30;90.80;;;;;;5066877;28;20036;-79
2022/09/30 00:50:09;;;;;;;4.18;2.20;;;9.30;90.80;;;;;;5062408;28;20506;-79
2022/09/30 00:52:35;;;;;;;4.22;2.25;;;9.20;90.80;;;;;;5067244;27;20227;-80
2022/09/30 00:55:06;;;;;;;2.97;2.10;;;9.20;90.90;;;;;;5053447;28;20016;-79
2022/09/30 00:57:33;;;;;;;3.47;2.50;;;9.20;90.90;;;;;;5062774;28;20043;-79
2022/09/30 01:00:00;;;;;;;3.40;2.40;;;9.20;91.00;;;;;;5064869;28;20042;-79
2022/09/30 01:02:25;;;;;;;3.50;2.45;;;9.10;91.00;;;;;;5070558;28;20710;-79
2022/09/30 01:04:53;;;;;;;3.15;2.33;;;9.10;90.90;;;;;;5067306;28;20024;-79
2022/09/30 01:07:22;;;;;;;4.03;2.60;;;9.10;90.90;;;;;;5029705;28;20037;-80
2022/09/30 01:09:48;;;;;;;3.55;2.63;;;9.10;90.90;;;;;;5070338;28;20027;-80
2022/09/30 01:12:19;;;;;;;5.00;2.30;;;9.00;90.90;;;;;;5065551;28;20520;-79
2022/09/30 01:14:47;;;;;;;4.15;2.50;;;9.00;90.90;;;;;;5055361;28;20390;-79
2022/09/30 01:17:25;;;;;;;4.13;2.70;;;9.00;91.00;;;;;;5067000;28;20032;-79
2022/09/30 01:20:03;;;;;;;3.10;2.20;;;8.90;91.00;;;;;;5085259;28;20077;-79
2022/09/30 01:23:06;;;;;;;3.75;2.35;;;8.90;91.00;;;;;;5050127;28;20098;-79
2022/09/30 01:26:06;;;;;;;4.20;3.10;;;8.90;91.00;;;;;;5074375;28;20744;-79
2022/09/30 01:29:04;;;;;;;5.28;2.58;;;8.90;91.00;;;;;;5074035;28;20297;-79
2022/09/30 01:31:48;;;;;;;3.03;2.35;;;8.80;91.10;;;;;;5047364;28;20505;-79
2022/09/30 01:34:24;;;;;;;2.90;2.27;;;8.80;91.10;;;;;;5060232;28;20024;-79
2022/09/30 01:37:09;;;;;;;3.63;2.50;;;8.80;91.20;;;;;;5047220;28;20019;-79
2022/09/30 01:39:48;;;;;;;3.15;2.30;;;8.80;91.20;;;;;;5086801;27;20315;-79
2022/09/30 01:42:35;;;;;;;4.80;2.60;;;8.70;91.10;;;;;;5056573;28;20434;-79
2022/09/30 01:45:32;;;;;;;4.03;2.30;;;8.70;91.20;;;;;;5068776;28;20036;-79
2022/09/30 01:48:13;;;;;;;3.27;2.13;;;8.70;91.20;;;;;;5056872;28;20393;-79
2022/09/30 01:50:53;;;;;;;3.45;2.30;;;8.70;91.30;;;;;;5071571;28;20240;-79
2022/09/30 01:53:40;;;;;;;3.33;2.20;;;8.60;91.30;;;;;;5048827;28;20036;-80
2022/09/30 01:56:25;;;;;;;3.60;2.40;;;8.60;91.30;;;;;;5068144;28;20547;-79
2022/09/30 01:59:06;;;;;;;3.45;2.60;;;8.60;91.30;;;;;;5071572;28;20020;-79
2022/09/30 02:01:57;;;;;;;3.10;2.17;;;8.60;91.60;;;;;;5051948;28;20281;-79
2022/09/30 02:04:32;;;;;;;3.58;2.33;;;8.60;91.40;;;;;;5063569;28;20044;-79
2022/09/30 02:07:04;;;;;;;3.42;2.47;;;8.50;91.40;;;;;;5086658;28;20047;-79
2022/09/30 02:09:39;;;;;;;3.25;2.47;;;8.50;91.50;;;;;;5059722;28;20161;-79
2022/09/30 02:12:10;;;;;;;3.20;2.33;;;8.50;91.50;;;;;;5073984;28;20016;-79
2022/09/30 02:14:51;;;;;;;3.53;2.40;;;8.50;91.50;;;;;;5058263;28;20047;-79
2022/09/30 02:17:22;;;;;;;3.45;2.25;;;8.50;91.60;;;;;;5055379;28;20032;-79
2022/09/30 02:19:59;;;;;;;3.53;2.60;;;8.40;91.50;;;;;;5047561;28;20136;-79
2022/09/30 02:22:39;;;;;;;3.92;2.70;;;8.40;91.50;;;;;;5058441;28;20107;-79
2022/09/30 02:25:08;;;;;;;3.80;2.60;;;8.40;91.50;;;;;;5054352;28;20897;-79
2022/09/30 02:27:40;;;;;;;5.53;2.60;;;8.40;91.50;;;;;;5081190;28;20032;-79
2022/09/30 02:30:08;;;;;;;3.45;2.47;;;8.40;91.50;;;;;;5065868;28;20028;-79
2022/09/30 02:32:54;;;;;;;3.20;2.30;;;8.30;91.60;;;;;;5041486;28;20020;-79
2022/09/30 02:35:51;;;;;;;3.55;2.22;;;8.30;91.60;;;;;;5073320;28;20035;-80
2022/09/30 02:38:36;;;;;;;3.08;2.20;;;8.30;91.60;;;;;;5053446;28;20044;-79
2022/09/30 02:41:10;;;;;;;3.30;2.17;;;8.30;91.70;;;;;;5038837;28;21168;-79
2022/09/30 02:43:40;;;;;;;3.33;2.17;;;8.30;91.70;;;;;;5071666;28;20099;-79
2022/09/30 02:46:06;;;;;;;4.35;2.63;;;8.20;91.70;;;;;;5083428;28;20035;-79
2022/09/30 02:48:46;;;;;;;3.53;2.33;;;8.20;91.70;;;;;;5060820;28;20048;-79
2022/09/30 02:51:27;;;;;;;3.22;2.35;;;8.20;91.60;;;;;;5044622;28;20032;-79
2022/09/30 02:54:06;;;;;;;4.07;2.88;;;8.20;91.60;;;;;;5037454;28;20847;-79
2022/09/30 02:56:47;;;;;;;3.08;2.05;;;8.10;91.60;;;;;;5055010;28;20033;-79
2022/09/30 02:59:13;;;;;;;3.50;2.50;;;8.10;91.70;;;;;;5071475;28;20016;-79
2022/09/30 03:01:40;;;;;;;3.80;2.40;;;8.10;91.80;;;;;;5067720;28;20125;-79
2022/09/30 03:04:09;;;;;;;3.17;2.20;;;8.10;91.80;;;;;;5061478;28;20068;-79
2022/09/30 03:06:36;;;;;;;3.00;2.20;;;8.10;91.80;;;;;;5074089;28;20169;-79
2022/09/30 03:09:03;;;;;;;3.55;2.45;;;8.10;91.80;;;;;;5065590;28;20082;-79
2022/09/30 03:11:29;;;;;;;3.90;2.63;;;8.10;91.80;;;;;;5063320;28;20020;-79
2022/09/30 03:14:09;;;;;;;3.93;2.60;;;8.10;91.90;;;;;;5074100;28;20256;-79
2022/09/30 03:17:26;;;;;;;4.25;2.97;;;8.00;91.90;;;;;;5085270;28;20042;-79
2022/09/30 03:19:54;;;;;;;5.43;2.67;;;8.00;91.80;;;;;;5022053;28;20085;-79
2022/09/30 03:22:45;;;;;;;4.78;2.70;;;8.00;91.80;;;;;;5069172;28;20059;-79
2022/09/30 03:25:33;;;;;;;5.55;2.92;;;8.00;91.80;;;;;;5068815;28;20097;-79
2022/09/30 03:28:18;;;;;;;5.30;2.83;;;7.90;91.80;;;;;;5069387;28;20020;-79
2022/09/30 03:31:11;;;;;;;4.28;2.70;;;7.90;91.80;;;;;;5067253;28;20030;-79
2022/09/30 03:33:50;;;;;;;4.00;2.58;;;7.90;91.80;;;;;;5051569;28;20430;-79
2022/09/30 03:36:32;;;;;;;4.65;2.42;;;7.80;91.80;;;;;;5057575;28;20373;-79
2022/09/30 03:39:07;;;;;;;3.55;2.60;;;7.90;91.90;;;;;;5061516;28;20032;-79
2022/09/30 03:41:50;;;;;;;3.80;2.80;;;7.80;92.00;;;;;;5053772;28;20052;-79
2022/09/30 03:44:21;;;;;;;3.60;2.55;;;7.80;92.00;;;;;;5045937;28;20520;-79
2022/09/30 03:46:55;;;;;;;4.05;2.30;;;7.80;92.00;;;;;;5061179;28;20140;-79
2022/09/30 03:49:24;;;;;;;3.35;2.40;;;7.80;92.00;;;;;;5054385;28;20348;-79
2022/09/30 03:51:50;;;;;;;3.90;2.40;;;7.70;92.00;;;;;;5073478;28;20031;-79
2022/09/30 03:54:16;;;;;;;3.43;2.37;;;7.80;92.10;;;;;;5065760;28;20559;-79
2022/09/30 03:56:42;;;;;;;3.67;2.60;;;7.70;92.10;;;;;;5074047;28;20038;-79
2022/09/30 03:59:26;;;;;;;4.10;2.70;;;7.70;92.10;;;;;;5033911;28;20021;-79
2022/09/30 04:01:52;;;;;;;6.23;2.67;;;7.70;92.10;;;;;;5069571;28;20016;-79
2022/09/30 04:04:18;;;;;;;4.53;2.50;;;7.70;92.20;;;;;;5041876;28;20093;-79
2022/09/30 04:06:44;;;;;;;3.70;2.70;;;7.70;92.20;;;;;;5067372;28;20380;-79
2022/09/30 04:09:09;;;;;;;3.67;2.70;;;7.70;92.20;;;;;;5066252;28;20016;-79
2022/09/30 04:11:35;;;;;;;3.60;2.30;;;7.70;92.30;;;;;;5065319;28;20182;-81
2022/09/30 04:14:01;;;;;;;3.87;2.70;;;7.60;92.30;;;;;;5031287;28;20278;-82
2022/09/30 04:16:31;;;;;;;3.90;2.60;;;7.60;92.30;;;;;;5067186;28;20020;-82
2022/09/30 04:18:56;;;;;;;3.67;2.55;;;7.60;92.30;;;;;;5057024;28;20040;-82
2022/09/30 04:21:22;;;;;;;4.00;2.57;;;7.60;92.30;;;;;;5036770;28;20059;-82
2022/09/30 04:23:49;;;;;;;3.75;2.70;;;7.60;92.40;;;;;;5068175;28;20029;-81
2022/09/30 04:26:16;;;;;;;3.85;2.60;;;7.60;92.40;;;;;;5075666;27;20297;-81
2022/09/30 04:28:42;;;;;;;3.63;2.40;;;7.60;92.40;;;;;;5066128;28;20020;-81
2022/09/30 04:31:10;;;;;;;3.75;2.42;;;7.60;92.40;;;;;;5036374;28;20176;-81
2022/09/30 04:33:37;;;;;;;3.53;2.40;;;7.60;92.40;;;;;;5074218;28;20443;-81
2022/09/30 04:36:03;;;;;;;3.72;2.67;;;7.60;92.50;;;;;;5051613;28;20137;-81
2022/09/30 04:38:29;;;;;;;4.35;2.65;;;7.60;92.50;;;;;;5049476;28;20025;-81
2022/09/30 04:40:56;;;;;;;4.07;2.50;;;7.50;92.50;;;;;;5061991;28;20493;-81
2022/09/30 04:43:23;;;;;;;3.75;2.60;;;7.50;92.50;;;;;;5057746;28;20023;-81
2022/09/30 04:45:51;;;;;;;3.75;2.78;;;7.50;92.50;;;;;;5060654;28;20252;-81
2022/09/30 04:48:17;;;;;;;3.63;2.30;;;7.50;92.40;;;;;;5064835;28;20105;-81
2022/09/30 04:50:43;;;;;;;3.65;2.30;;;7.50;92.40;;;;;;5069863;28;20226;-81
2022/09/30 04:53:11;;;;;;;5.30;2.93;;;7.50;92.50;;;;;;5040785;28;20025;-81
2022/09/30 04:55:37;;;;;;;4.05;2.28;;;7.50;92.50;;;;;;5047474;28;20518;-81
2022/09/30 04:58:03;;;;;;;4.23;2.80;;;7.50;92.60;;;;;;5054274;28;20044;-82
2022/09/30 05:00:29;;;;;;;3.60;2.40;;;7.50;92.60;;;;;;5045921;28;20278;-81
2022/09/30 05:02:54;;;;;;;4.72;2.95;;;7.50;92.60;;;;;;5038536;28;20114;-81
2022/09/30 05:05:20;;;;;;;4.17;2.47;;;7.50;92.60;;;;;;5045059;28;20501;-81
2022/09/30 05:07:46;;;;;;;3.70;2.47;;;7.50;92.50;;;;;;5049776;28;20028;-81
2022/09/30 05:10:12;;;;;;;4.50;2.67;;;7.50;92.50;;;;;;5048366;28;20020;-81
2022/09/30 05:12:39;;;;;;;3.90;2.65;;;7.40;92.50;;;;;;5060603;28;20024;-81
2022/09/30 05:15:06;;;;;;;4.07;2.60;;;7.40;92.50;;;;;;5038483;28;20492;-81
2022/09/30 05:17:32;;;;;;;4.03;2.70;;;7.40;92.60;;;;;;5054541;28;20081;-81
2022/09/30 05:19:58;;;;;;;3.67;2.40;;;7.40;92.60;;;;;;5059627;28;20159;-82
2022/09/30 05:22:24;;;;;;;4.50;2.90;;;7.40;92.70;;;;;;5057254;28;20023;-81
2022/09/30 05:24:51;;;;;;;4.50;2.70;;;7.40;92.70;;;;;;5060901;28;20061;-81
2022/09/30 05:27:37;;;;;;;4.03;2.83;;;7.30;92.70;;;;;;5067315;28;20057;-81
2022/09/30 05:30:05;;;;;;;4.63;2.50;;;7.30;92.70;;;;;;5059163;28;20168;-81
2022/09/30 05:32:31;;;;;;;4.22;2.63;;;7.40;92.70;;;;;;5062436;28;20036;-82
2022/09/30 05:34:56;;;;;;;5.23;3.00;;;7.30;92.70;;;;;;5038484;28;20024;-79
2022/09/30 05:37:22;;;;;;;4.95;2.80;;;7.30;92.80;;;;;;5073232;28;20031;-79
2022/09/30 05:39:47;;;;;;;4.27;2.63;;;7.30;92.80;;;;;;5048407;28;20331;-79
2022/09/30 05:42:13;;;;;;;4.97;2.70;;;7.30;92.80;;;;;;5056636;28;20225;-79
2022/09/30 05:44:39;;;;;;;6.70;2.90;;;7.30;92.90;;;;;;5053184;28;20812;-79
2022/09/30 05:47:04;;;;;;;4.13;2.60;;;7.30;93.00;;;;;;5045351;28;20369;-79
2022/09/30 05:49:30;;;;;;;5.10;3.10;;;7.30;93.00;;;;;;5047568;28;20044;-79
2022/09/30 05:51:56;;;;;;;5.03;3.08;;;7.30;93.30;;;;;;5064966;28;20020;-79
2022/09/30 05:54:21;;;;;;;5.57;2.80;;;7.30;93.00;;;;;;5045917;28;20101;-79
2022/09/30 05:56:47;;;;;;;4.77;2.67;;;7.30;93.00;;;;;;5057597;28;20119;-79
2022/09/30 05:59:13;;;;;;;4.82;2.58;;;7.30;93.10;;;;;;5040235;28;20020;-79
2022/09/30 06:01:38;;;;;;;5.13;3.07;;;7.20;93.10;;;;;;5048832;28;20913;-79
2022/09/30 06:04:04;;;;;;;4.72;2.88;;;7.30;93.20;;;;;;5063811;28;20028;-79
2022/09/30 06:06:30;;;;;;;5.50;2.90;;;7.20;93.20;;;;;;5053894;28;20056;-79
2022/09/30 06:08:55;;;;;;;4.50;2.70;;;7.20;93.30;;;;;;5065986;28;20347;-79
2022/09/30 06:11:23;;;;;;;4.50;3.00;;;7.30;93.40;;;;;;5016392;28;20431;-79
2022/09/30 06:13:50;;;;;;;3.90;2.20;;;7.30;93.50;;;;;;5066623;28;20475;-79
2022/09/30 06:16:17;;;;;;;4.00;2.55;;;7.30;93.60;;;;;;5043809;28;20560;-79
2022/09/30 06:18:43;;;;;;;4.07;2.20;;;7.30;93.70;;;;;;5064395;28;20501;-79
2022/09/30 06:21:12;;;;;;;3.97;2.60;;;7.40;93.80;;;;;;5050969;28;20025;-79
2022/09/30 06:23:38;;;;;;;4.47;2.70;;;7.40;93.90;;;;;;5062291;28;20236;-79
2022/09/30 06:26:07;;;;;;;5.10;2.72;;;7.40;93.90;;;;;;5035590;28;20028;-79
2022/09/30 06:28:34;;;;;;;5.85;3.42;;;7.50;94.00;;;;;;5065041;28;20063;-79
2022/09/30 06:31:03;;;;;;;5.00;3.10;;;7.50;94.00;;;;;;5067942;28;20305;-79
2022/09/30 06:33:28;;;;;;;6.40;3.27;;;7.50;94.10;;;;;;5050223;28;20251;-79
2022/09/30 06:35:54;;;;;;;6.35;3.30;;;7.60;94.10;;;;;;5053214;28;20222;-79
2022/09/30 06:38:21;;;;;;;5.17;3.00;;;7.60;94.20;;;;;;5064073;28;20549;-80
2022/09/30 06:40:49;;;;;;;5.18;3.17;;;7.60;94.30;;;;;;5041222;28;20357;-79
2022/09/30 06:43:19;;;;;;;4.93;3.00;;;7.60;94.40;;;;;;5039135;28;20033;-79
2022/09/30 06:45:46;;;;;;;6.30;3.28;;;7.70;94.50;;;;;;5067368;28;20587;-79
2022/09/30 06:48:12;;;;;;;6.07;3.37;;;7.70;94.60;;;;;;5054280;28;20048;-79
2022/09/30 06:50:38;;;;;;;5.40;3.50;;;7.80;94.60;;;;;;5056825;28;20020;-79
2022/09/30 06:53:06;;;;;;;5.20;3.03;;;7.80;94.70;;;;;;5046702;28;20035;-79
2022/09/30 06:55:35;;;;;;;5.60;2.95;;;7.90;94.80;;;;;;5053566;28;20024;-79
2022/09/30 06:58:01;;;;;;;5.07;3.10;;;7.90;94.90;;;;;;5058762;28;20570;-79
2022/09/30 07:00:27;;;;;;;5.43;3.13;;;8.00;95.10;;;;;;5066223;28;20210;-79
2022/09/30 07:02:56;;;;;;;4.85;3.25;;;8.10;95.20;;;;;;5058723;27;20020;-79
2022/09/30 07:05:24;;;;;;;4.95;3.05;;;8.10;95.30;;;;;;5064795;28;20028;-79
2022/09/30 07:07:51;;;;;;;5.72;3.78;;;8.20;95.50;;;;;;5059129;28;20024;-79
2022/09/30 07:10:17;;;;;;;4.40;3.03;;;8.20;95.70;;;;;;5049264;28;20344;-79
2022/09/30 07:12:42;;;;;;;5.47;3.63;;;8.40;96.00;;;;;;5045544;28;20063;-79
2022/09/30 07:15:08;;;;;;;6.10;3.87;;;8.40;96.70;;;;;;5073271;28;20044;-79
2022/09/30 07:17:34;;;;;;;5.70;3.97;;;8.60;97.90;;;;;;5026437;28;20915;-79
2022/09/30 07:20:00;;;;;;;6.72;4.38;;;8.90;99.50;;;;;;5070348;28;20024;-79
2022/09/30 07:22:33;;;;;;;6.87;4.40;;;9.40;99.90;;;;;;5047865;28;20633;-79
2022/09/30 07:25:04;;;;;;;7.35;4.50;;;9.90;99.90;;;;;;5060904;28;20020;-78
2022/09/30 07:27:32;;;;;;;7.25;4.68;;;10.60;99.90;;;;;;5036565;28;20298;-79
2022/09/30 07:29:58;;;;;;;8.05;5.00;;;11.30;99.90;;;;;;5063267;28;20381;-78
2022/09/30 07:32:24;;;;;;;7.10;4.80;;;12.00;99.90;;;;;;5042163;28;20562;-79
2022/09/30 07:34:50;;;;;;;6.30;4.67;;;12.70;99.90;;;;;;5071236;27;20035;-78
2022/09/30 07:37:17;;;;;;;7.03;5.32;;;13.40;99.90;;;;;;5043098;28;20396;-79
2022/09/30 07:39:45;;;;;;;8.48;5.18;;;14.10;99.90;;;;;;5071114;28;20413;-79
2022/09/30 07:42:13;;;;;;;7.37;5.10;;;14.80;99.90;;;;;;5046678;28;20078;-79
2022/09/30 07:44:40;;;;;;;7.60;4.97;;;15.40;99.90;;;;;;5051542;28;20348;-79
2022/09/30 07:47:07;;;;;;;7.63;5.47;;;15.90;99.90;;;;;;5069866;28;20036;-79
2022/09/30 07:49:33;;;;;;;6.65;5.30;;;16.60;99.90;;;;;;5042637;28;20060;-79
2022/09/30 07:51:59;;;;;;;6.47;4.97;;;17.10;99.90;;;;;;5063817;28;20020;-79
2022/09/30 07:54:28;;;;;;;6.10;4.80;;;17.60;99.90;;;;;;5061631;28;20016;-80
2022/09/30 07:56:54;;;;;;;6.43;4.95;;;18.10;99.60;;;;;;5052507;28;20024;-79
2022/09/30 07:59:20;;;;;;;6.80;4.75;;;18.50;99.10;;;;;;5027915;28;20032;-79
2022/09/30 08:01:46;;;;;;;7.63;5.13;;;18.90;98.60;;;;;;5073022;28;20036;-79
2022/09/30 08:04:15;;;;;;;6.13;5.23;;;19.20;98.10;;;;;;5044462;28;20020;-79
2022/09/30 08:06:47;;;;;;;6.32;5.30;;;19.60;97.60;;;;;;5048433;28;20283;-80
2022/09/30 08:09:15;;;;;;;7.30;5.30;;;19.90;96.30;;;;;;5072363;28;20567;-79
2022/09/30 08:11:41;;;;;;;6.25;5.05;;;20.20;96.60;;;;;;5059802;28;20637;-80
2022/09/30 08:14:16;;;;;;;6.80;4.90;;;20.40;96.60;;;;;;5063284;28;20035;-80
2022/09/30 08:16:42;;;;;;;8.53;4.93;;;20.60;95.50;;;;;;5070367;28;20020;-80
2022/09/30 08:19:15;;;;;;;6.65;5.28;;;20.80;96.00;;;;;;5055323;28;20036;-79
2022/09/30 08:21:41;;;;;;;6.15;4.55;;;21.10;94.90;;;;;;5056739;28;20020;-79
2022/09/30 08:24:08;;;;;;;7.47;5.07;;;21.30;96.00;;;;;;5077664;28;20089;-80
2022/09/30 08:26:33;;;;;;;7.50;5.53;;;21.50;95.80;;;;;;5061914;28;20861;-80
2022/09/30 08:28:59;;;;;;;6.53;4.83;;;21.80;95.80;;;;;;5055178;28;20028;-80
2022/09/30 08:31:25;;;;;;;6.10;4.80;;;22.00;95.20;;;;;;5059131;28;20118;-80
2022/09/30 08:33:51;;;;;;;6.07;5.00;;;22.20;95.10;;;;;;5068448;28;20028;-80
2022/09/30 08:36:20;;;;;;;6.60;4.93;;;22.40;94.80;;;;;;5052057;28;20024;-81
2022/09/30 08:38:46;;;;;;;6.47;4.65;;;22.50;94.70;;;;;;5074481;28;20127;-81
2022/09/30 08:41:40;;;;;;;6.60;5.18;;;22.70;94.80;;;;;;5066196;28;20122;-80
2022/09/30 08:44:38;;;;;;;5.10;4.13;;;23.00;91.70;;;;;;5057349;28;20960;-80
2022/09/30 08:47:07;;;;;;;6.30;4.73;;;23.20;92.20;;;;;;5058533;28;20024;-80
2022/09/30 08:49:36;;;;;;;5.85;4.60;;;23.40;93.60;;;;;;5058920;28;20040;-80
2022/09/30 08:52:04;;;;;;;5.13;4.38;;;23.60;93.50;;;;;;5055125;28;20032;-80
2022/09/30 08:54:33;;;;;;;5.97;4.30;;;23.80;94.20;;;;;;5057702;27;20054;-80
2022/09/30 08:57:01;;;;;;;5.88;3.97;;;23.80;93.30;;;;;;5061843;28;20051;-80
2022/09/30 08:59:39;;;;;;;4.80;3.80;;;23.90;93.90;;;;;;5038725;28;20039;-80
2022/09/30 09:02:26;;;;;;;7.40;4.45;;;24.00;92.70;;;;;;5048086;28;20183;-81
2022/09/30 09:04:56;;;;;;;5.18;3.58;;;24.30;91.60;;;;;;5053732;28;20036;-80
2022/09/30 09:07:34;;;;;;;5.75;4.03;;;24.40;95.00;;;;;;5051550;28;20388;-80
2022/09/30 09:10:18;;;;;;;4.60;3.70;;;24.60;94.90;;;;;;5065173;28;20261;-79
2022/09/30 09:12:59;;;;;;;5.43;3.57;;;24.90;92.50;;;;;;5034264;28;20059;-80
2022/09/30 09:15:49;;;;;;;3.88;3.17;;;25.00;92.60;;;;;;5045925;28;20036;-79
2022/09/30 09:18:45;;;;;;;4.35;3.42;;;25.20;91.20;;;;;;5059580;28;20032;-80
2022/09/30 09:21:40;;;;;;;4.78;3.47;;;25.30;91.50;;;;;;5036468;28;20378;-80
2022/09/30 09:24:14;;;;;;;4.65;3.30;;;25.40;92.40;;;;;;5060705;28;20031;-79
2022/09/30 09:26:40;;;;;;;4.60;3.33;;;25.50;92.80;;;;;;5066361;28;20045;-80
2022/09/30 09:29:14;;;;;;;5.70;3.40;;;25.70;94.60;;;;;;5052489;28;20641;-79
2022/09/30 09:31:40;;;;;;;4.75;2.90;;;25.90;92.00;;;;;;5054093;28;20213;-80
2022/09/30 09:34:11;;;;;;;4.43;3.27;;;26.10;94.40;;;;;;5043251;28;20240;-80
2022/09/30 09:36:57;;;;;;;4.63;3.20;;;26.30;92.80;;;;;;5051462;28;20032;-79
2022/09/30 09:39:53;;;;;;;4.78;2.60;;;26.50;90.80;;;;;;5071711;28;20389;-79
2022/09/30 09:42:37;;;;;;;4.07;2.70;;;26.60;89.80;;;;;;5061093;28;20078;-79
2022/09/30 09:45:18;;;;;;;4.80;2.83;;;26.70;90.50;;;;;;5050217;28;20059;-79
2022/09/30 09:47:50;;;;;;;5.22;3.03;;;26.80;93.20;;;;;;5057667;28;20116;-80
2022/09/30 09:50:22;;;;;;;3.45;2.60;;;27.00;90.90;;;;;;5050266;28;20115;-80
2022/09/30 09:53:12;;;;;;;3.13;2.38;;;27.10;92.30;;;;;;5055814;27;20419;-80
2022/09/30 09:55:38;;;;;;;4.67;2.30;;;27.30;90.30;;;;;;5061809;28;20020;-79
2022/09/30 09:58:09;;;;;;;4.40;2.30;;;27.40;93.10;;;;;;5055812;28;20046;-80
2022/09/30 10:03:19;;;;;;;2.70;1.85;;;27.70;93.20;;;;;;5071260;28;20028;-80
2022/09/30 10:06:01;;;;;;;2.83;1.80;;;27.80;92.60;;;;;;5076851;28;20036;-80
2022/09/30 10:08:29;;;;;;;2.75;2.10;;;28.00;89.50;;;;;;5058421;28;20036;-79
2022/09/30 10:10:58;;;;;;;2.88;1.67;;;28.10;93.30;;;;;;5073567;28;20051;-79
2022/09/30 10:13:25;;;;;;;3.00;1.65;;;28.30;92.60;;;;;;5070674;28;20660;-80
2022/09/30 10:15:56;;;;;;;2.65;1.52;;;28.60;93.50;;;;;;5051720;28;20036;-80
2022/09/30 10:18:32;;;;;;;1.90;1.47;;;28.80;91.30;;;;;;5070399;28;20411;-80
2022/09/30 10:21:01;;;;;;;2.80;1.70;;;29.00;87.20;;;;;;5035257;28;20034;-80
2022/09/30 10:23:38;;;;;;;2.22;1.70;;;29.10;90.80;;;;;;5057721;28;20025;-80
2022/09/30 10:26:12;;;;;;;1.92;1.70;;;29.20;87.60;;;;;;5062979;28;20515;-80
2022/09/30 10:28:55;;;;;;;3.45;1.80;;;29.50;87.80;;;;;;5067273;28;20024;-80
2022/09/30 10:31:25;;;;;;;1.90;1.47;;;29.60;82.70;;;;;;5048638;28;20036;-80
2022/09/30 10:34:09;;;;;;;2.00;1.67;;;29.70;90.00;;;;;;5065104;28;20021;-80
2022/09/30 10:36:38;;;;;;;2.30;1.45;;;29.80;83.60;;;;;;5067080;28;20685;-80
2022/09/30 10:39:18;;;;;;;2.65;1.48;;;29.90;90.80;;;;;;5054785;28;20075;-80
2022/09/30 10:41:44;;;;;;;2.00;1.63;;;30.10;88.70;;;;;;5044952;28;20052;-80
2022/09/30 10:44:20;;;;;;;2.20;1.70;;;30.20;90.70;;;;;;5072222;28;20771;-80
2022/09/30 10:46:49;;;;;;;3.20;1.98;;;30.40;81.50;;;;;;5031302;28;20032;-79
2022/09/30 10:49:23;;;;;;;2.60;1.88;;;30.50;86.70;;;;;;5047568;28;20036;-79
2022/09/30 10:51:49;;;;;;;2.50;2.10;;;30.60;84.50;;;;;;5063511;28;20024;-79
2022/09/30 10:54:49;;;;;;;2.88;2.10;;;30.80;87.40;;;;;;5045594;28;20065;-79
2022/09/30 10:57:23;;;;;;;2.20;1.90;;;31.00;76.50;;;;;;5050176;28;20035;-80
2022/09/30 10:59:56;;;;;;;3.50;2.10;;;31.20;82.70;;;;;;5036658;28;20027;-79
2022/09/30 11:02:28;;;;;;;2.40;2.20;;;31.30;84.00;;;;;;5059912;28;21976;-81
2022/09/30 11:05:16;;;;;;;2.28;2.08;;;31.50;81.70;;;;;;5055648;28;20060;-80
2022/09/30 11:07:46;;;;;;;2.45;2.00;;;31.60;75.60;;;;;;5038500;28;20293;-81
2022/09/30 11:10:27;;;;;;;2.33;1.70;;;31.60;76.70;;;;;;5036549;28;20514;-80
2022/09/30 11:13:01;;;;;;;2.88;1.90;;;31.20;75.30;;;;;;5056446;28;20092;-81
2022/09/30 11:15:39;;;;;;;2.45;1.70;;;30.70;70.60;;;;;;5043450;28;20020;-81
2022/09/30 11:18:09;;;;;;;2.80;1.77;;;30.30;70.50;;;;;;5069878;28;20689;-80
2022/09/30 11:20:46;;;;;;;2.22;1.52;;;30.00;74.10;;;;;;5054676;28;20024;-80
2022/09/30 11:23:36;;;;;;;2.17;1.50;;;29.70;73.30;;;;;;5060938;28;20214;-79
2022/09/30 11:26:18;;;;;;;2.65;1.80;;;29.70;68.10;;;;;;5030292;28;20483;-81
2022/09/30 11:28:51;;;;;;;1.88;1.50;;;29.80;71.50;;;;;;5053391;28;20079;-80
2022/09/30 11:31:32;;;;;;;2.80;1.88;;;29.90;77.60;;;;;;5062465;28;20032;-81
2022/09/30 11:34:09;;;;;;;1.75;1.55;;;30.10;74.30;;;;;;5057525;28;20139;-81
2022/09/30 11:36:44;;;;;;;2.00;1.80;;;30.10;72.30;;;;;;5071394;27;20037;-80
2022/09/30 11:39:28;;;;;;;2.72;1.60;;;30.00;68.90;;;;;;5070586;28;20054;-81
2022/09/30 11:42:08;;;;;;;1.85;1.63;;;29.80;74.20;;;;;;5055985;28;20032;-80
2022/09/30 11:44:37;;;;;;;2.05;1.85;;;29.80;70.40;;;;;;5044181;28;20123;-80
2022/09/30 11:47:15;;;;;;;1.90;1.70;;;29.80;74.70;;;;;;5062417;28;20103;-80
2022/09/30 11:50:05;;;;;;;2.10;1.80;;;29.80;76.10;;;;;;5074267;28;20048;-81
2022/09/30 11:52:46;;;;;;;1.95;1.70;;;30.00;71.60;;;;;;5042681;28;20025;-81
2022/09/30 11:55:35;;;;;;;2.50;1.30;;;30.00;70.90;;;;;;5059709;28;20562;-80
2022/09/30 11:58:06;;;;;;;1.85;1.60;;;30.10;67.20;;;;;;5061621;28;20388;-79
2022/09/30 12:00:35;;;;;;;1.90;1.50;;;30.20;72.90;;;;;;5073721;28;20028;-80
2022/09/30 12:03:21;;;;;;;1.83;1.50;;;30.30;74.00;;;;;;5066007;28;20033;-80
2022/09/30 12:06:03;;;;;;;1.98;1.38;;;30.50;67.70;;;;;;5073741;28;20527;-80
2022/09/30 12:08:39;;;;;;;1.70;1.60;;;30.70;66.10;;;;;;5061112;28;20499;-80
2022/09/30 12:11:13;;;;;;;1.77;1.30;;;30.70;69.50;;;;;;5069314;28;20018;-81
2022/09/30 12:13:46;;;;;;;1.65;1.30;;;30.80;66.40;;;;;;5045126;28;20024;-80
2022/09/30 12:16:24;;;;;;;1.27;1.17;;;30.60;64.90;;;;;;5069782;28;20030;-80
2022/09/30 12:18:59;;;;;;;2.05;1.10;;;30.30;62.30;;;;;;5063031;27;21727;-80
2022/09/30 12:21:38;;;;;;;1.45;1.20;;;30.00;64.40;;;;;;5070099;28;20180;-81
2022/09/30 12:24:18;;;;;;;1.48;1.35;;;29.80;64.10;;;;;;5041065;28;20115;-82
2022/09/30 12:26:46;;;;;;;1.67;1.23;;;29.90;64.70;;;;;;5045325;28;20021;-81
2022/09/30 12:32:18;;;;;;;2.13;1.70;;;30.00;69.30;;;;;;5062975;28;20456;-80
2022/09/30 12:35:20;;;;;;;1.50;1.13;;;30.00;64.50;;;;;;5039863;28;20049;-80
2022/09/30 12:38:15;;;;;;;2.45;1.50;;;29.80;60.00;;;;;;5055285;28;20590;-80
2022/09/30 12:40:57;;;;;;;1.83;1.38;;;29.80;62.00;;;;;;5069261;28;20021;-81
2022/09/30 12:43:37;;;;;;;1.70;1.47;;;29.80;62.90;;;;;;5050663;28;20020;-80
2022/09/30 12:46:08;;;;;;;2.40;1.52;;;29.60;60.00;;;;;;5074240;28;20036;-82
2022/09/30 12:48:42;;;;;;;2.17;1.70;;;29.40;65.10;;;;;;5049688;28;20123;-81
2022/09/30 12:51:10;;;;;;;1.83;1.50;;;29.10;60.30;;;;;;5070101;28;20251;-81
2022/09/30 12:53:39;;;;;;;1.90;1.65;;;28.80;62.80;;;;;;5057172;28;20020;-81
2022/09/30 12:56:14;;;;;;;2.73;1.53;;;28.40;62.00;;;;;;5059266;28;20572;-81
2022/09/30 12:58:45;;;;;;;2.72;1.30;;;28.20;59.70;;;;;;5055939;28;20508;-81
2022/09/30 13:01:14;;;;;;;2.28;1.50;;;27.80;60.80;;;;;;5057860;28;20029;-81
2022/09/30 13:04:08;;;;;;;2.63;1.45;;;27.50;62.10;;;;;;5067806;28;20553;-81
2022/09/30 13:06:46;;;;;;;2.53;1.70;;;27.50;59.40;;;;;;5042945;28;20073;-82
2022/09/30 13:09:32;;;;;;;2.87;2.10;;;27.50;62.40;;;;;;5071653;28;20302;-81
2022/09/30 13:11:58;;;;;;;2.65;2.00;;;27.60;64.00;;;;;;5057287;28;20537;-80
2022/09/30 13:14:35;;;;;;;2.70;1.50;;;27.70;67.70;;;;;;5041890;28;20024;-81
2022/09/30 13:17:06;;;;;;;2.17;1.60;;;27.80;67.70;;;;;;5059501;28;20249;-80
2022/09/30 13:19:43;;;;;;;2.55;1.38;;;27.90;64.20;;;;;;5077390;28;20050;-81
2022/09/30 13:22:22;;;;;;;2.42;1.60;;;27.90;64.10;;;;;;5048138;28;20457;-82
2022/09/30 13:25:03;;;;;;;1.73;1.50;;;27.80;61.70;;;;;;5063124;28;20044;-80
2022/09/30 13:27:36;;;;;;;2.10;1.50;;;27.70;62.00;;;;;;5071206;28;20035;-81